Time;durP1;ratioP1;P1;durP2;ratioP2;P2;SDS_P1;SDS_P2;PMS_P1;PMS_P2;Temp;Humidity;BMP_temperature;BMP_pressure;BME280_temperature;BME280_humidity;BME280_pressure;Samples;Min_cycle;Max_cycle;Signal;HPM_P1;HPM_P2
2022/04/02 00:00:28;;;;;;;67.13;47.55;;;13.40;53.10;;;;;;4983481;28;94789;-38
2022/04/02 00:02:55;;;;;;;66.60;47.72;;;13.40;53.30;;;;;;4993980;28;94949;-39
2022/04/02 00:05:20;;;;;;;67.43;47.88;;;13.40;53.30;;;;;;4996149;28;94950;-37
2022/04/02 00:07:46;;;;;;;65.57;47.40;;;13.40;53.30;;;;;;4981631;28;94900;-36
2022/04/02 00:10:12;;;;;;;67.00;47.63;;;13.40;53.40;;;;;;4991730;28;94993;-39
2022/04/02 00:12:39;;;;;;;66.40;47.45;;;13.40;53.30;;;;;;4999266;28;94039;-35
2022/04/02 00:15:05;;;;;;;66.60;47.80;;;13.40;53.30;;;;;;5000795;28;95228;-35
2022/04/02 00:17:32;;;;;;;66.82;47.38;;;13.40;53.10;;;;;;4990435;28;94949;-35
2022/04/02 00:19:57;;;;;;;66.20;47.42;;;13.40;53.30;;;;;;4994095;28;95842;-38
2022/04/02 00:22:23;;;;;;;65.88;47.45;;;13.40;53.30;;;;;;4997880;28;94921;-37
2022/04/02 00:24:49;;;;;;;65.75;47.40;;;13.40;53.30;;;;;;4994318;28;95063;-36
2022/04/02 00:27:14;;;;;;;65.93;47.40;;;13.40;53.30;;;;;;4997490;28;95057;-34
2022/04/02 00:29:41;;;;;;;67.78;47.67;;;13.40;53.20;;;;;;5002312;28;94490;-39
2022/04/02 00:32:07;;;;;;;66.57;47.65;;;13.40;53.20;;;;;;4995683;28;94989;-35
2022/04/02 00:34:33;;;;;;;66.18;47.70;;;13.30;53.10;;;;;;4987242;28;94898;-37
2022/04/02 00:36:58;;;;;;;65.13;47.28;;;13.40;53.30;;;;;;4997418;28;95593;-38
2022/04/02 00:39:24;;;;;;;65.85;47.58;;;13.40;54.00;;;;;;4991545;28;94596;-37
2022/04/02 00:41:50;;;;;;;65.78;47.55;;;13.40;53.30;;;;;;4992381;28;95012;-39
2022/04/02 00:44:25;;;;;;;66.18;47.58;;;13.40;53.30;;;;;;4989088;28;96339;-37
2022/04/02 00:46:50;;;;;;;66.22;47.38;;;13.30;53.20;;;;;;4995547;28;96715;-35
2022/04/02 00:49:16;;;;;;;65.40;47.42;;;13.30;53.20;;;;;;4991160;28;94885;-38
2022/04/02 00:51:43;;;;;;;65.97;47.60;;;13.30;53.30;;;;;;4992784;28;94623;-41
2022/04/02 00:54:14;;;;;;;66.40;47.35;;;13.30;53.20;;;;;;4991099;28;96117;-38
2022/04/02 00:56:40;;;;;;;66.13;47.38;;;13.30;53.10;;;;;;4993915;28;95045;-37
2022/04/02 00:59:06;;;;;;;65.05;47.22;;;13.20;53.00;;;;;;4993366;28;94984;-36
2022/04/02 01:01:32;;;;;;;65.38;47.50;;;13.30;53.30;;;;;;4989289;28;94291;-41
2022/04/02 01:03:59;;;;;;;66.00;47.33;;;13.30;53.20;;;;;;4992567;28;95800;-38
2022/04/02 01:06:27;;;;;;;65.93;47.38;;;13.20;52.90;;;;;;4996124;28;95472;-37
2022/04/02 01:08:52;;;;;;;65.28;47.45;;;13.20;53.20;;;;;;4995266;28;100304;-39
2022/04/02 01:11:18;;;;;;;64.43;47.03;;;13.20;53.10;;;;;;5000648;28;94885;-38
2022/04/02 01:13:43;;;;;;;65.03;47.15;;;13.20;53.20;;;;;;4994248;28;94884;-41
2022/04/02 01:16:09;;;;;;;65.28;47.28;;;13.20;53.20;;;;;;4998992;28;96123;-38
2022/04/02 01:18:35;;;;;;;65.43;47.13;;;13.20;53.20;;;;;;4995247;28;95091;-40
2022/04/02 01:21:01;;;;;;;65.03;47.10;;;13.20;53.20;;;;;;4996219;28;95293;-35
2022/04/02 01:23:30;;;;;;;65.47;47.55;;;13.20;53.00;;;;;;4994100;28;94895;-34
2022/04/02 01:25:57;;;;;;;65.93;47.53;;;13.20;53.00;;;;;;4997210;28;94357;-35
2022/04/02 01:28:23;;;;;;;65.25;47.45;;;13.20;53.20;;;;;;4988069;28;94677;-40
2022/04/02 01:30:49;;;;;;;64.82;47.15;;;13.10;53.00;;;;;;4996927;28;95890;-36
2022/04/02 01:33:15;;;;;;;65.05;47.30;;;13.20;53.00;;;;;;4992371;28;95916;-50
2022/04/02 01:35:40;;;;;;;65.15;47.33;;;13.10;53.00;;;;;;4994990;28;95440;-39
2022/04/02 01:38:06;;;;;;;66.55;47.65;;;13.10;53.20;;;;;;4995472;28;95114;-35
2022/04/02 01:40:32;;;;;;;64.78;47.25;;;13.20;53.70;;;;;;4995086;28;94961;-36
2022/04/02 01:42:57;;;;;;;65.40;47.53;;;13.10;53.20;;;;;;4993285;28;96450;-39
2022/04/02 01:45:23;;;;;;;65.22;47.40;;;13.10;53.00;;;;;;4988212;28;97904;-38
2022/04/02 01:47:51;;;;;;;65.72;47.45;;;13.10;52.90;;;;;;4996147;28;95172;-38
2022/04/02 01:50:17;;;;;;;65.57;47.25;;;13.10;53.20;;;;;;4987326;28;94223;-37
2022/04/02 01:52:43;;;;;;;64.95;47.22;;;13.10;53.10;;;;;;4995186;28;95301;-40
2022/04/02 01:55:09;;;;;;;65.15;47.33;;;13.10;53.20;;;;;;4987667;28;99037;-34
2022/04/02 01:57:36;;;;;;;66.45;47.30;;;13.10;53.20;;;;;;4993610;27;96236;-37
2022/04/02 02:00:03;;;;;;;65.45;47.53;;;13.10;53.10;;;;;;4993839;28;94884;-36
2022/04/02 02:02:29;;;;;;;65.97;47.47;;;13.10;53.20;;;;;;4986227;28;95138;-37
2022/04/02 02:04:55;;;;;;;65.13;47.22;;;13.10;53.00;;;;;;4990026;28;95683;-38
2022/04/02 02:07:21;;;;;;;64.90;47.15;;;13.10;53.20;;;;;;4988309;28;95224;-38
2022/04/02 02:09:47;;;;;;;65.65;47.45;;;13.10;53.30;;;;;;4988102;28;94624;-39
2022/04/02 02:12:12;;;;;;;64.93;47.08;;;13.10;53.00;;;;;;4994417;28;94934;-37
2022/04/02 02:14:38;;;;;;;64.70;47.13;;;13.10;53.10;;;;;;4994486;28;95257;-42
2022/04/02 02:17:04;;;;;;;65.60;47.35;;;13.00;52.90;;;;;;4990640;28;94606;-39
2022/04/02 02:19:30;;;;;;;65.18;47.45;;;13.00;53.10;;;;;;4997349;28;95878;-40
2022/04/02 02:21:56;;;;;;;65.38;47.40;;;13.00;53.00;;;;;;4996814;28;96050;-39
2022/04/02 02:24:22;;;;;;;67.18;47.35;;;13.10;53.10;;;;;;4996144;28;95482;-39
2022/04/02 02:26:48;;;;;;;66.43;47.50;;;13.00;53.10;;;;;;4989626;28;94447;-40
2022/04/02 02:29:14;;;;;;;65.22;47.13;;;13.00;52.90;;;;;;4997453;28;95129;-36
2022/04/02 02:31:39;;;;;;;65.35;47.08;;;13.00;53.00;;;;;;4996456;27;95350;-39
2022/04/02 02:36:49;;;;;;;65.13;47.15;;;13.00;53.00;;;;;;4992084;28;94697;-38
2022/04/02 02:39:15;;;;;;;64.63;47.28;;;13.00;53.00;;;;;;4997139;28;94397;-36
2022/04/02 02:41:40;;;;;;;64.88;47.28;;;13.00;53.00;;;;;;4995855;28;95265;-37
2022/04/02 02:44:06;;;;;;;64.78;47.05;;;13.00;53.20;;;;;;4988723;28;95570;-45
2022/04/02 02:46:33;;;;;;;64.40;46.92;;;13.00;53.10;;;;;;4989488;28;95959;-34
2022/04/02 02:48:59;;;;;;;64.90;47.15;;;13.00;52.90;;;;;;4992095;28;96057;-39
2022/04/02 02:51:24;;;;;;;65.50;47.33;;;13.00;53.20;;;;;;4987508;28;98344;-40
2022/04/02 02:53:50;;;;;;;66.68;46.80;;;13.00;53.10;;;;;;4991785;28;94945;-36
2022/04/02 02:56:16;;;;;;;64.78;47.28;;;13.00;53.00;;;;;;4992213;28;95182;-36
2022/04/02 02:58:41;;;;;;;64.90;47.15;;;13.00;53.10;;;;;;4995691;28;94898;-40
2022/04/02 03:01:07;;;;;;;66.38;47.35;;;12.90;53.00;;;;;;4996215;28;95585;-37
2022/04/02 03:03:33;;;;;;;64.68;47.20;;;13.00;53.20;;;;;;4992836;28;94937;-37
2022/04/02 03:05:59;;;;;;;64.30;46.92;;;13.00;53.10;;;;;;4993879;28;94896;-39
2022/04/02 03:08:25;;;;;;;64.82;47.30;;;12.90;53.00;;;;;;4994880;28;94660;-35
2022/04/02 03:10:52;;;;;;;64.38;46.85;;;13.00;53.70;;;;;;4989112;28;96406;-38
2022/04/02 03:13:18;;;;;;;64.68;47.10;;;12.90;53.00;;;;;;4990501;28;97277;-36
2022/04/02 03:15:44;;;;;;;64.70;47.25;;;12.90;53.10;;;;;;4990089;28;94776;-38
2022/04/02 03:18:09;;;;;;;63.92;46.80;;;12.90;53.50;;;;;;4993531;28;96695;-38
2022/04/02 03:20:36;;;;;;;64.82;46.95;;;12.90;52.90;;;;;;4995918;28;95842;-41
2022/04/02 03:23:03;;;;;;;64.38;46.92;;;12.90;52.80;;;;;;4996049;28;94954;-39
2022/04/02 03:25:30;;;;;;;64.65;47.25;;;12.90;53.20;;;;;;4997740;28;94945;-39
2022/04/02 03:27:56;;;;;;;64.68;47.08;;;12.90;53.00;;;;;;4986091;28;94461;-36
2022/04/02 03:30:23;;;;;;;65.88;47.10;;;12.90;52.90;;;;;;4998044;28;95772;-40
2022/04/02 03:32:49;;;;;;;64.70;46.95;;;12.90;53.00;;;;;;4990508;28;94971;-36
2022/04/02 03:35:15;;;;;;;64.68;46.97;;;12.80;52.90;;;;;;4991369;28;95607;-35
2022/04/02 03:37:46;;;;;;;64.78;47.42;;;12.90;53.00;;;;;;4992705;28;94712;-39
2022/04/02 03:40:17;;;;;;;64.47;47.15;;;12.90;53.10;;;;;;4992709;28;95136;-41
2022/04/02 03:42:44;;;;;;;65.20;47.42;;;12.90;53.00;;;;;;4994712;28;95052;-40
2022/04/02 03:45:12;;;;;;;65.13;46.80;;;12.90;52.90;;;;;;4998444;28;94981;-37
2022/04/02 03:47:38;;;;;;;65.18;47.20;;;12.90;52.90;;;;;;4995169;28;94866;-38
2022/04/02 03:50:05;;;;;;;64.80;47.13;;;12.80;53.00;;;;;;4990029;28;95116;-37
2022/04/02 03:52:31;;;;;;;64.22;47.05;;;12.80;52.80;;;;;;4996178;28;95651;-36
2022/04/02 03:54:56;;;;;;;64.18;47.05;;;12.80;52.90;;;;;;4994654;28;94615;-39
2022/04/02 03:57:22;;;;;;;64.03;46.92;;;12.80;52.90;;;;;;5000816;28;94963;-36
2022/04/02 03:59:48;;;;;;;65.07;47.47;;;12.80;53.10;;;;;;4994375;28;98926;-41
2022/04/02 04:02:14;;;;;;;65.30;47.47;;;12.80;52.70;;;;;;4986933;28;95358;-44
2022/04/02 04:04:40;;;;;;;63.58;46.63;;;12.80;52.90;;;;;;4995792;28;94751;-40
2022/04/02 04:07:07;;;;;;;64.30;47.10;;;12.70;52.80;;;;;;4989425;28;94942;-36
2022/04/02 04:09:33;;;;;;;64.70;47.17;;;12.80;53.10;;;;;;4997238;28;95134;-36
2022/04/02 04:11:59;;;;;;;65.00;47.33;;;12.80;52.80;;;;;;4997882;28;94991;-37
2022/04/02 04:14:26;;;;;;;64.13;47.10;;;12.80;53.00;;;;;;4996673;28;94910;-37
2022/04/02 04:16:53;;;;;;;64.65;47.25;;;12.80;52.90;;;;;;4996153;28;93801;-36
2022/04/02 04:19:19;;;;;;;67.30;47.30;;;12.70;52.90;;;;;;4993532;28;95695;-42
2022/04/02 04:21:46;;;;;;;64.55;47.25;;;12.80;52.80;;;;;;4995320;28;95687;-48
2022/04/02 04:24:12;;;;;;;64.70;46.97;;;12.70;52.80;;;;;;4995855;28;96066;-39
2022/04/02 04:26:38;;;;;;;64.25;47.00;;;12.70;52.70;;;;;;4998874;28;95066;-37
2022/04/02 04:29:05;;;;;;;64.90;47.50;;;12.70;52.90;;;;;;4999210;28;95323;-39
2022/04/02 04:31:30;;;;;;;65.25;47.33;;;12.70;52.80;;;;;;4996653;28;94918;-37
2022/04/02 04:33:56;;;;;;;64.68;47.13;;;12.70;53.10;;;;;;4994777;28;94966;-48
2022/04/02 04:36:22;;;;;;;64.65;47.33;;;12.70;53.00;;;;;;4995535;28;94693;-35
2022/04/02 04:38:48;;;;;;;64.57;47.05;;;12.70;52.90;;;;;;4993158;28;94802;-37
2022/04/02 04:41:14;;;;;;;65.68;47.08;;;12.70;52.90;;;;;;4990380;28;95953;-37
2022/04/02 04:43:41;;;;;;;64.95;47.22;;;12.70;52.90;;;;;;4996254;28;94722;-42
2022/04/02 04:46:08;;;;;;;65.55;47.53;;;12.70;53.10;;;;;;4992095;28;95365;-40
2022/04/02 04:48:35;;;;;;;63.75;46.92;;;12.70;52.70;;;;;;4989776;28;95991;-39
2022/04/02 04:51:02;;;;;;;63.95;47.00;;;12.70;53.00;;;;;;4987419;28;96520;-35
2022/04/02 04:53:28;;;;;;;64.85;47.33;;;12.70;53.00;;;;;;4998964;28;94884;-37
2022/04/02 04:55:54;;;;;;;65.35;47.05;;;12.60;52.80;;;;;;4997947;28;94609;-40
2022/04/02 04:58:20;;;;;;;63.95;47.05;;;12.70;53.00;;;;;;4996624;28;94937;-38
2022/04/02 05:00:46;;;;;;;64.53;47.38;;;12.70;53.10;;;;;;4990190;28;95232;-39
2022/04/02 05:03:12;;;;;;;64.30;47.25;;;12.70;52.90;;;;;;4990741;28;95160;-41
2022/04/02 05:05:38;;;;;;;64.95;47.47;;;12.70;53.10;;;;;;4996051;28;94307;-37
2022/04/02 05:08:07;;;;;;;64.57;47.15;;;12.60;53.00;;;;;;4990620;28;94826;-38
2022/04/02 05:10:34;;;;;;;64.50;46.95;;;12.60;52.90;;;;;;4995057;28;95188;-39
2022/04/02 05:13:01;;;;;;;64.20;47.22;;;12.60;52.90;;;;;;4996979;28;95730;-38
2022/04/02 05:15:26;;;;;;;64.32;46.95;;;12.60;52.80;;;;;;4990624;28;95503;-40
2022/04/02 05:17:53;;;;;;;64.68;47.25;;;12.60;52.80;;;;;;4994536;28;95182;-37
2022/04/02 05:20:18;;;;;;;66.82;47.03;;;12.60;52.80;;;;;;4988501;27;95995;-41
2022/04/02 05:22:45;;;;;;;65.10;47.05;;;12.60;53.10;;;;;;4991022;28;95347;-38
2022/04/02 05:25:11;;;;;;;65.00;47.67;;;12.60;53.00;;;;;;4998387;28;94832;-37
2022/04/02 05:27:37;;;;;;;65.05;47.30;;;12.60;53.00;;;;;;4996034;28;94901;-36
2022/04/02 05:30:03;;;;;;;64.25;47.15;;;12.60;52.90;;;;;;4995359;28;94854;-40
2022/04/02 05:32:30;;;;;;;64.32;47.33;;;12.60;52.90;;;;;;4991819;28;94852;-38
2022/04/02 05:34:57;;;;;;;65.82;47.33;;;12.60;52.80;;;;;;4991468;28;94976;-49
2022/04/02 05:37:23;;;;;;;63.78;47.03;;;12.60;53.00;;;;;;4987870;28;95941;-39
2022/04/02 05:39:49;;;;;;;65.03;47.17;;;12.60;52.90;;;;;;4989424;28;95064;-39
2022/04/02 05:42:15;;;;;;;66.03;47.35;;;12.60;52.90;;;;;;4989327;28;94996;-40
2022/04/02 05:44:41;;;;;;;65.20;47.28;;;12.60;52.80;;;;;;4997270;28;96021;-40
2022/04/02 05:47:07;;;;;;;64.03;46.88;;;12.50;52.80;;;;;;4996258;28;94839;-40
2022/04/02 05:49:33;;;;;;;64.00;46.85;;;12.60;53.20;;;;;;4994059;28;95054;-36
2022/04/02 05:51:59;;;;;;;64.15;47.28;;;12.50;52.80;;;;;;4995771;28;96331;-35
2022/04/02 05:54:25;;;;;;;63.45;46.92;;;12.60;53.50;;;;;;4996446;28;94447;-35
2022/04/02 05:56:52;;;;;;;64.32;47.45;;;12.60;52.90;;;;;;4993334;28;95084;-35
2022/04/02 05:59:18;;;;;;;64.72;46.83;;;12.60;52.90;;;;;;4991943;28;95469;-43
2022/04/02 06:01:44;;;;;;;63.42;46.70;;;12.60;52.90;;;;;;4989470;28;96233;-36
2022/04/02 06:04:10;;;;;;;63.83;46.92;;;12.60;52.90;;;;;;4995589;28;94946;-39
2022/04/02 06:06:37;;;;;;;63.65;46.97;;;12.60;52.90;;;;;;4987199;28;94978;-42
2022/04/02 06:09:03;;;;;;;65.28;47.15;;;12.50;52.80;;;;;;4993791;28;96916;-39
2022/04/02 06:11:29;;;;;;;63.83;46.95;;;12.60;52.80;;;;;;4992711;28;94896;-37
2022/04/02 06:13:55;;;;;;;64.10;46.97;;;12.60;52.90;;;;;;4996547;28;95009;-38
2022/04/02 06:16:21;;;;;;;64.57;47.47;;;12.50;52.80;;;;;;4993377;28;94959;-35
2022/04/02 06:18:46;;;;;;;64.20;47.20;;;12.60;52.80;;;;;;4988615;28;94251;-40
2022/04/02 06:21:12;;;;;;;63.80;46.88;;;12.50;52.80;;;;;;4995222;28;94936;-38
2022/04/02 06:23:38;;;;;;;63.50;46.70;;;12.50;53.00;;;;;;4990217;28;94572;-39
2022/04/02 06:26:03;;;;;;;64.15;47.03;;;12.50;52.90;;;;;;4982842;28;96300;-38
2022/04/02 06:28:29;;;;;;;63.70;46.92;;;12.50;52.90;;;;;;4990866;28;95898;-42
2022/04/02 06:30:56;;;;;;;64.28;47.13;;;12.50;52.80;;;;;;4991339;28;94957;-36
2022/04/02 06:33:22;;;;;;;64.65;47.00;;;12.50;52.70;;;;;;4991881;28;96405;-38
2022/04/02 06:35:47;;;;;;;64.47;47.13;;;12.50;52.70;;;;;;4991137;28;95040;-45
2022/04/02 06:38:13;;;;;;;65.18;46.95;;;12.50;52.60;;;;;;4992848;28;98081;-38
2022/04/02 06:40:39;;;;;;;65.43;47.30;;;12.50;52.80;;;;;;4993027;28;94867;-36
2022/04/02 06:43:05;;;;;;;64.57;47.15;;;12.50;52.50;;;;;;4991850;28;101818;-38
2022/04/02 06:45:30;;;;;;;65.32;47.45;;;12.50;52.80;;;;;;4987682;28;94862;-39
2022/04/02 06:47:56;;;;;;;64.28;47.10;;;12.50;52.70;;;;;;4995327;28;95018;-40
2022/04/02 06:50:22;;;;;;;64.30;46.95;;;12.50;52.70;;;;;;4993783;28;96015;-36
2022/04/02 06:52:47;;;;;;;67.20;47.60;;;12.50;52.80;;;;;;4983334;28;95066;-43
2022/04/02 06:55:15;;;;;;;65.00;47.25;;;12.60;52.90;;;;;;4990185;28;94895;-39
2022/04/02 06:57:57;;;;;;;64.28;47.13;;;12.50;52.70;;;;;;4995694;28;95095;-39
2022/04/02 07:00:24;;;;;;;65.00;46.92;;;12.60;52.70;;;;;;4994754;28;94719;-38
2022/04/02 07:02:50;;;;;;;64.40;47.13;;;12.50;52.70;;;;;;4993167;28;95381;-42
2022/04/02 07:05:18;;;;;;;64.78;47.15;;;12.50;52.50;;;;;;4995112;28;95352;-37
2022/04/02 07:07:47;;;;;;;63.72;47.13;;;12.60;52.80;;;;;;4990269;28;95138;-38
2022/04/02 07:10:13;;;;;;;64.18;47.08;;;12.50;52.60;;;;;;4994266;28;94835;-34
2022/04/02 07:12:39;;;;;;;64.43;46.95;;;12.50;52.60;;;;;;4996552;28;95284;-35
2022/04/02 07:15:06;;;;;;;65.05;47.15;;;12.50;52.80;;;;;;4992166;28;96862;-40
2022/04/02 07:17:31;;;;;;;65.75;47.33;;;12.60;52.50;;;;;;4997051;28;97770;-38
2022/04/02 07:19:59;;;;;;;65.50;46.97;;;12.60;52.60;;;;;;4991412;28;95519;-39
2022/04/02 07:22:26;;;;;;;64.22;46.67;;;12.60;52.30;;;;;;4984193;28;94967;-36
2022/04/02 07:24:53;;;;;;;63.60;46.70;;;12.60;52.30;;;;;;4996358;28;95040;-39
2022/04/02 07:27:31;;;;;;;64.20;47.10;;;12.60;52.70;;;;;;4994564;28;94988;-39
2022/04/02 07:29:58;;;;;;;64.38;47.08;;;12.50;52.50;;;;;;4983302;28;94896;-38
2022/04/02 07:32:24;;;;;;;64.43;47.20;;;12.60;52.50;;;;;;4997867;28;94163;-40
2022/04/02 07:34:50;;;;;;;64.55;47.22;;;12.60;52.50;;;;;;4995692;28;96198;-40
2022/04/02 07:37:40;;;;;;;65.55;47.20;;;12.60;52.40;;;;;;4992591;28;94914;-37
2022/04/02 07:40:09;;;;;;;65.50;47.30;;;12.60;52.40;;;;;;4989660;28;95912;-37
2022/04/02 07:42:46;;;;;;;64.53;46.92;;;12.60;52.50;;;;;;4991305;28;94936;-33
2022/04/02 07:45:13;;;;;;;64.35;47.05;;;12.60;52.50;;;;;;4993399;28;94985;-39
2022/04/02 07:47:43;;;;;;;65.00;47.22;;;12.60;52.40;;;;;;4993847;28;94843;-40
2022/04/02 07:50:13;;;;;;;65.00;47.30;;;12.60;52.50;;;;;;4986642;28;95703;-40
2022/04/02 07:52:43;;;;;;;65.40;47.28;;;12.70;52.50;;;;;;4989308;28;98037;-37
2022/04/02 07:55:10;;;;;;;64.85;47.28;;;12.70;52.30;;;;;;4991406;28;95359;-39
2022/04/02 07:57:47;;;;;;;65.10;47.33;;;12.70;52.50;;;;;;4992131;28;96536;-42
2022/04/02 08:00:15;;;;;;;64.80;47.38;;;12.70;52.40;;;;;;4987690;28;94590;-37
2022/04/02 08:02:43;;;;;;;65.32;47.47;;;12.70;52.40;;;;;;4988537;28;94930;-40
2022/04/02 08:05:14;;;;;;;65.68;47.40;;;12.70;52.30;;;;;;4989530;28;97166;-36
2022/04/02 08:07:44;;;;;;;65.18;47.25;;;12.70;52.50;;;;;;4990821;28;95277;-37
2022/04/02 08:10:12;;;;;;;65.15;47.28;;;12.70;52.50;;;;;;4993270;28;95083;-38
2022/04/02 08:12:40;;;;;;;65.15;47.33;;;12.70;52.40;;;;;;4991470;28;94964;-38
2022/04/02 08:15:17;;;;;;;64.88;47.22;;;12.80;52.50;;;;;;4991206;28;96087;-37
2022/04/02 08:17:47;;;;;;;65.22;47.50;;;12.80;52.40;;;;;;4993818;28;95447;-39
2022/04/02 08:20:17;;;;;;;65.20;47.57;;;12.80;52.30;;;;;;4990690;28;96571;-34
2022/04/02 08:22:44;;;;;;;65.18;47.35;;;12.80;52.40;;;;;;4997231;28;94146;-35
2022/04/02 08:25:11;;;;;;;65.80;47.60;;;12.80;52.40;;;;;;4990977;28;97812;-40
2022/04/02 08:27:52;;;;;;;66.57;47.55;;;12.80;52.00;;;;;;4989415;28;94864;-35
2022/04/02 08:30:32;;;;;;;64.82;47.33;;;12.80;52.20;;;;;;4987068;28;95868;-41
2022/04/02 08:33:07;;;;;;;65.30;47.40;;;12.80;52.40;;;;;;4992897;28;94896;-38
2022/04/02 08:35:38;;;;;;;65.43;47.42;;;12.80;52.50;;;;;;4995256;28;100018;-39
2022/04/02 08:38:23;;;;;;;65.50;47.35;;;12.90;52.30;;;;;;4991422;28;95636;-41
2022/04/02 08:40:48;;;;;;;64.95;47.25;;;12.90;52.40;;;;;;4988847;28;94616;-38
2022/04/02 08:43:26;;;;;;;65.90;47.55;;;12.90;52.40;;;;;;4997083;28;94629;-42
2022/04/02 08:46:23;;;;;;;65.80;47.35;;;12.90;52.30;;;;;;4994775;28;98174;-35
2022/04/02 08:49:00;;;;;;;64.93;47.22;;;12.90;52.30;;;;;;4982347;28;94197;-41
2022/04/02 08:51:45;;;;;;;65.43;47.28;;;12.90;52.00;;;;;;4996400;28;94886;-36
2022/04/02 08:54:19;;;;;;;65.85;47.65;;;12.90;52.30;;;;;;4995926;28;94644;-37
2022/04/02 08:56:49;;;;;;;66.13;47.55;;;13.00;51.80;;;;;;4994489;28;96371;-40
2022/04/02 08:59:40;;;;;;;65.95;47.67;;;12.90;51.80;;;;;;4997073;28;96382;-31
2022/04/02 09:02:47;;;;;;;67.05;47.88;;;12.90;51.90;;;;;;4995095;28;96882;-38
2022/04/02 09:05:23;;;;;;;66.72;47.60;;;13.00;52.00;;;;;;4995307;28;94905;-42
2022/04/02 09:08:10;;;;;;;66.65;47.85;;;13.00;52.10;;;;;;4992324;27;97402;-38
2022/04/02 09:11:09;;;;;;;67.15;47.88;;;13.00;51.80;;;;;;4994240;28;94573;-41
2022/04/02 09:13:50;;;;;;;67.35;48.05;;;13.10;51.80;;;;;;4998950;28;95401;-39
2022/04/02 09:16:36;;;;;;;66.65;47.85;;;13.10;51.70;;;;;;4988565;28;94899;-39
2022/04/02 09:19:42;;;;;;;67.07;47.85;;;13.10;51.70;;;;;;4991614;28;95015;-39
2022/04/02 09:22:22;;;;;;;66.47;47.67;;;13.10;51.80;;;;;;4939512;28;94995;-38
2022/04/02 09:25:25;;;;;;;67.68;47.95;;;13.10;51.90;;;;;;4997762;28;95925;-42
2022/04/02 09:28:05;;;;;;;68.05;47.95;;;13.10;51.60;;;;;;4995306;28;94936;-38
2022/04/02 09:30:48;;;;;;;66.95;48.05;;;13.10;51.70;;;;;;4989196;28;94885;-38
2022/04/02 09:33:23;;;;;;;67.55;47.85;;;13.10;52.20;;;;;;4990681;28;95369;-40
2022/04/02 09:36:15;;;;;;;67.57;47.90;;;13.20;51.80;;;;;;4993997;28;95059;-39
2022/04/02 09:38:43;;;;;;;67.97;48.15;;;13.20;51.50;;;;;;4950395;28;94929;-40
2022/04/02 09:41:15;;;;;;;67.97;48.03;;;13.30;51.70;;;;;;4993012;28;95789;-40
2022/04/02 09:43:58;;;;;;;67.75;47.85;;;13.30;51.40;;;;;;4993236;28;95639;-40
2022/04/02 09:47:07;;;;;;;68.03;48.08;;;13.30;51.50;;;;;;4992685;28;96323;-41
2022/04/02 09:49:49;;;;;;;67.35;47.92;;;13.30;51.20;;;;;;4990013;28;94991;-47
2022/04/02 09:52:21;;;;;;;67.63;47.90;;;13.30;51.40;;;;;;4989491;28;96772;-39
2022/04/02 09:55:02;;;;;;;68.22;48.47;;;13.30;51.30;;;;;;4991193;28;95851;-35
2022/04/02 09:57:38;;;;;;;67.15;47.92;;;13.40;51.50;;;;;;4996343;28;94691;-38
2022/04/02 10:00:08;;;;;;;67.43;47.83;;;13.40;51.20;;;;;;4997113;28;97673;-38
2022/04/02 10:03:11;;;;;;;67.97;48.35;;;13.40;51.20;;;;;;4998056;28;95013;-41
2022/04/02 10:05:45;;;;;;;67.70;48.13;;;13.40;50.90;;;;;;4999287;28;95060;-38
2022/04/02 10:08:14;;;;;;;68.18;48.08;;;13.40;50.90;;;;;;4991597;28;94959;-38
2022/04/02 10:10:43;;;;;;;68.50;48.08;;;13.40;51.10;;;;;;4992044;28;94101;-41
2022/04/02 10:13:08;;;;;;;69.53;48.63;;;13.50;51.00;;;;;;4989071;28;94929;-35
2022/04/02 10:15:41;;;;;;;69.07;48.38;;;13.50;50.90;;;;;;4993451;28;94945;-41
2022/04/02 10:18:10;;;;;;;69.00;48.45;;;13.50;50.80;;;;;;4990814;28;95905;-41
2022/04/02 10:20:38;;;;;;;68.90;48.38;;;13.60;50.90;;;;;;5001743;28;95194;-34
2022/04/02 10:23:16;;;;;;;69.82;48.65;;;13.60;51.10;;;;;;4993071;28;96111;-37
2022/04/02 10:26:07;;;;;;;69.55;48.60;;;13.60;50.80;;;;;;4994103;28;95659;-37
2022/04/02 10:28:40;;;;;;;69.17;48.40;;;13.70;50.90;;;;;;4996353;28;95264;-36
2022/04/02 10:31:09;;;;;;;70.78;48.70;;;13.70;50.60;;;;;;4994018;28;95621;-37
2022/04/02 10:33:38;;;;;;;68.97;48.53;;;13.70;50.80;;;;;;4989757;28;96086;-38
2022/04/02 10:36:09;;;;;;;69.47;48.45;;;13.70;50.90;;;;;;4998697;28;94909;-35
2022/04/02 10:38:39;;;;;;;68.97;48.70;;;13.60;50.80;;;;;;4993291;28;95171;-40
2022/04/02 10:41:12;;;;;;;68.80;48.42;;;13.60;50.60;;;;;;4995589;28;96721;-37
2022/04/02 10:44:00;;;;;;;69.07;48.63;;;13.60;50.70;;;;;;4993771;27;98006;-36
2022/04/02 10:46:26;;;;;;;68.60;48.35;;;13.60;50.60;;;;;;4994295;28;96063;-39
2022/04/02 10:48:52;;;;;;;69.57;48.40;;;13.60;50.80;;;;;;4997863;28;95024;-40
2022/04/02 10:51:23;;;;;;;68.03;48.08;;;13.60;50.60;;;;;;4998496;28;94942;-40
2022/04/02 10:53:58;;;;;;;68.00;48.25;;;13.60;50.80;;;;;;4987703;27;95094;-37
2022/04/02 10:56:35;;;;;;;69.15;48.47;;;13.60;50.80;;;;;;4994721;28;94718;-39
2022/04/02 10:59:00;;;;;;;69.00;48.38;;;13.70;50.60;;;;;;4986142;28;94874;-38
2022/04/02 11:01:27;;;;;;;68.75;48.35;;;13.60;50.60;;;;;;4990042;28;93852;-34
2022/04/02 11:03:56;;;;;;;68.40;48.33;;;13.70;50.70;;;;;;4986155;28;95363;-38
2022/04/02 11:06:44;;;;;;;69.60;48.63;;;13.70;50.70;;;;;;4999675;28;95204;-38
2022/04/02 11:09:27;;;;;;;68.80;48.45;;;13.70;50.90;;;;;;4992289;28;95646;-39
2022/04/02 11:11:54;;;;;;;69.22;48.55;;;13.70;50.50;;;;;;4992708;28;95065;-38
2022/04/02 11:14:20;;;;;;;69.65;48.50;;;13.80;50.60;;;;;;4992038;28;95269;-47
2022/04/02 11:16:46;;;;;;;70.38;48.72;;;13.80;50.40;;;;;;4992615;28;95219;-37
2022/04/02 11:22:27;;;;;;;70.97;48.97;;;13.90;50.20;;;;;;4995435;28;95191;-39
2022/04/02 11:25:06;;;;;;;71.30;49.10;;;13.90;50.40;;;;;;4994732;28;94933;-36
2022/04/02 11:27:36;;;;;;;70.40;48.75;;;13.90;50.30;;;;;;4995009;28;95677;-40
2022/04/02 11:30:13;;;;;;;71.15;48.90;;;13.90;50.30;;;;;;4999652;28;95074;-43
2022/04/02 11:32:46;;;;;;;70.78;48.95;;;14.00;50.30;;;;;;4993425;28;95040;-40
2022/04/02 11:35:22;;;;;;;71.30;49.05;;;14.00;50.10;;;;;;4990733;27;97055;-36
2022/04/02 11:37:55;;;;;;;70.70;48.63;;;14.00;50.00;;;;;;4991049;28;95927;-38
2022/04/02 11:40:26;;;;;;;72.03;49.05;;;14.00;50.20;;;;;;5002884;28;94877;-39
2022/04/02 11:42:52;;;;;;;71.00;49.03;;;14.10;50.00;;;;;;4994403;28;95016;-38
2022/04/02 11:45:19;;;;;;;71.30;49.05;;;14.10;50.00;;;;;;4999778;28;95255;-38
2022/04/02 11:47:51;;;;;;;71.57;49.15;;;14.10;50.00;;;;;;4993119;28;95415;-38
2022/04/02 11:50:30;;;;;;;71.72;49.00;;;14.10;50.10;;;;;;4993255;28;95217;-38
2022/04/02 11:52:58;;;;;;;71.28;49.08;;;14.10;49.80;;;;;;4991783;28;93915;-36
2022/04/02 11:55:25;;;;;;;71.82;49.22;;;14.10;49.90;;;;;;4993679;28;95030;-39
2022/04/02 11:57:58;;;;;;;71.13;49.08;;;14.10;49.90;;;;;;4996073;28;95073;-41
2022/04/02 12:00:26;;;;;;;71.47;49.13;;;14.20;49.90;;;;;;4994134;28;97319;-37
2022/04/02 12:02:52;;;;;;;70.80;48.72;;;14.10;49.90;;;;;;5000452;28;94639;-38
2022/04/02 12:05:20;;;;;;;71.15;48.88;;;14.20;49.80;;;;;;4992167;28;95813;-40
2022/04/02 12:07:47;;;;;;;71.15;49.08;;;14.20;49.80;;;;;;4996669;27;95480;-35
2022/04/02 12:10:18;;;;;;;70.63;48.78;;;14.20;49.90;;;;;;4994422;28;94887;-37
2022/04/02 12:12:49;;;;;;;70.68;48.75;;;14.20;49.70;;;;;;4991973;28;95020;-36
2022/04/02 12:15:16;;;;;;;71.18;48.97;;;14.20;49.80;;;;;;5000102;28;95947;-36
2022/04/02 12:17:52;;;;;;;70.35;48.72;;;14.10;49.80;;;;;;4993283;28;94948;-34
2022/04/02 12:20:29;;;;;;;69.95;48.60;;;14.10;49.80;;;;;;4998769;28;94994;-39
2022/04/02 12:23:11;;;;;;;69.65;48.63;;;14.10;49.90;;;;;;5000156;28;95471;-39
2022/04/02 12:25:53;;;;;;;69.95;48.67;;;14.10;50.00;;;;;;5002014;28;95772;-36
2022/04/02 12:28:18;;;;;;;;;;;14.10;50.10;;;;;;4996140;28;94903;-38
2022/04/02 12:30:48;;;;;;;69.15;48.38;;;14.10;50.00;;;;;;4998922;28;94858;-40
2022/04/02 12:33:22;;;;;;;69.20;48.40;;;14.10;50.00;;;;;;5000954;27;94604;-39
2022/04/02 12:36:08;;;;;;;69.75;48.65;;;14.10;50.00;;;;;;4995991;28;95399;-37
2022/04/02 12:38:39;;;;;;;70.22;48.65;;;14.00;50.00;;;;;;4988191;28;95079;-38
2022/04/02 12:41:17;;;;;;;69.83;48.53;;;14.10;50.20;;;;;;4996616;28;95083;-38
2022/04/02 12:43:47;;;;;;;70.35;48.90;;;14.10;50.10;;;;;;5000772;28;94044;-36
2022/04/02 12:46:25;;;;;;;71.35;49.05;;;14.10;49.90;;;;;;4997320;28;95031;-35